sensor_id;sensor_type;location;lat;lon;timestamp;P1;durP1;ratioP1;P2;durP2;ratioP2
15553;SDS011;7878;44.632;10.942;2022-10-31T00:01:09;16.17;;;10.00;;
15553;SDS011;7878;44.632;10.942;2022-10-31T00:03:41;18.20;;;10.60;;
15553;SDS011;7878;44.632;10.942;2022-10-31T00:06:07;18.13;;;10.02;;
15553;SDS011;7878;44.632;10.942;2022-10-31T00:08:33;13.82;;;10.48;;
15553;SDS011;7878;44.632;10.942;2022-10-31T00:10:59;17.10;;;9.70;;
15553;SDS011;7878;44.632;10.942;2022-10-31T00:13:25;14.02;;;9.95;;
15553;SDS011;7878;44.632;10.942;2022-10-31T00:15:51;16.38;;;10.05;;
15553;SDS011;7878;44.632;10.942;2022-10-31T00:18:16;18.30;;;10.07;;
15553;SDS011;7878;44.632;10.942;2022-10-31T00:20:42;15.95;;;9.32;;
15553;SDS011;7878;44.632;10.942;2022-10-31T00:23:08;13.13;;;9.68;;
15553;SDS011;7878;44.632;10.942;2022-10-31T00:25:36;17.73;;;9.82;;
15553;SDS011;7878;44.632;10.942;2022-10-31T00:28:03;13.70;;;9.27;;
15553;SDS011;7878;44.632;10.942;2022-10-31T00:30:30;17.50;;;9.50;;
15553;SDS011;7878;44.632;10.942;2022-10-31T00:32:56;15.57;;;9.50;;
15553;SDS011;7878;44.632;10.942;2022-10-31T00:35:22;14.23;;;8.40;;
15553;SDS011;7878;44.632;10.942;2022-10-31T00:37:47;14.73;;;8.90;;
15553;SDS011;7878;44.632;10.942;2022-10-31T00:40:13;12.88;;;8.90;;
15553;SDS011;7878;44.632;10.942;2022-10-31T00:42:39;11.75;;;8.35;;
15553;SDS011;7878;44.632;10.942;2022-10-31T00:45:06;15.02;;;8.98;;
15553;SDS011;7878;44.632;10.942;2022-10-31T00:47:33;13.52;;;8.70;;
15553;SDS011;7878;44.632;10.942;2022-10-31T00:49:59;13.93;;;8.43;;
15553;SDS011;7878;44.632;10.942;2022-10-31T00:52:24;12.13;;;7.95;;
15553;SDS011;7878;44.632;10.942;2022-10-31T00:54:50;11.73;;;8.73;;
15553;SDS011;7878;44.632;10.942;2022-10-31T00:57:15;11.73;;;7.85;;
15553;SDS011;7878;44.632;10.942;2022-10-31T00:59:41;12.45;;;7.85;;
15553;SDS011;7878;44.632;10.942;2022-10-31T01:02:07;15.77;;;7.15;;
15553;SDS011;7878;44.632;10.942;2022-10-31T01:04:33;13.68;;;7.57;;
15553;SDS011;7878;44.632;10.942;2022-10-31T01:06:58;9.25;;;6.72;;
15553;SDS011;7878;44.632;10.942;2022-10-31T01:09:24;9.93;;;7.57;;
15553;SDS011;7878;44.632;10.942;2022-10-31T01:11:49;8.65;;;7.03;;
15553;SDS011;7878;44.632;10.942;2022-10-31T01:14:15;9.32;;;7.43;;
15553;SDS011;7878;44.632;10.942;2022-10-31T01:16:41;13.45;;;7.38;;
15553;SDS011;7878;44.632;10.942;2022-10-31T01:19:06;10.90;;;8.20;;
15553;SDS011;7878;44.632;10.942;2022-10-31T01:21:32;10.77;;;7.68;;
15553;SDS011;7878;44.632;10.942;2022-10-31T01:23:58;13.40;;;7.80;;
15553;SDS011;7878;44.632;10.942;2022-10-31T01:26:25;11.43;;;7.60;;
15553;SDS011;7878;44.632;10.942;2022-10-31T01:28:55;16.35;;;8.05;;
15553;SDS011;7878;44.632;10.942;2022-10-31T01:31:24;11.70;;;8.45;;
15553;SDS011;7878;44.632;10.942;2022-10-31T01:33:51;13.70;;;7.32;;
15553;SDS011;7878;44.632;10.942;2022-10-31T01:38:43;13.52;;;7.93;;
15553;SDS011;7878;44.632;10.942;2022-10-31T01:41:10;11.52;;;7.55;;
15553;SDS011;7878;44.632;10.942;2022-10-31T01:43:47;10.68;;;7.72;;
15553;SDS011;7878;44.632;10.942;2022-10-31T01:46:18;11.65;;;8.10;;
15553;SDS011;7878;44.632;10.942;2022-10-31T01:48:47;13.43;;;7.80;;
15553;SDS011;7878;44.632;10.942;2022-10-31T01:51:13;13.38;;;7.78;;
15553;SDS011;7878;44.632;10.942;2022-10-31T01:53:41;14.75;;;8.18;;
15553;SDS011;7878;44.632;10.942;2022-10-31T01:56:09;12.55;;;7.70;;
15553;SDS011;7878;44.632;10.942;2022-10-31T01:58:35;12.05;;;8.35;;
15553;SDS011;7878;44.632;10.942;2022-10-31T02:01:01;12.07;;;7.57;;
15553;SDS011;7878;44.632;10.942;2022-10-31T02:03:27;11.13;;;8.05;;
15553;SDS011;7878;44.632;10.942;2022-10-31T02:05:54;10.30;;;8.00;;
15553;SDS011;7878;44.632;10.942;2022-10-31T02:08:28;13.27;;;8.63;;
15553;SDS011;7878;44.632;10.942;2022-10-31T02:10:56;12.75;;;8.02;;
15553;SDS011;7878;44.632;10.942;2022-10-31T02:13:23;15.98;;;8.30;;
15553;SDS011;7878;44.632;10.942;2022-10-31T02:15:51;14.98;;;8.07;;
15553;SDS011;7878;44.632;10.942;2022-10-31T02:18:19;12.30;;;7.85;;
15553;SDS011;7878;44.632;10.942;2022-10-31T02:23:28;9.18;;;7.53;;
15553;SDS011;7878;44.632;10.942;2022-10-31T02:41:48;10.50;;;7.55;;
15553;SDS011;7878;44.632;10.942;2022-10-31T02:46:59;11.68;;;7.45;;
15553;SDS011;7878;44.632;10.942;2022-10-31T02:52:00;12.15;;;7.50;;
15553;SDS011;7878;44.632;10.942;2022-10-31T02:54:27;10.45;;;6.82;;
15553;SDS011;7878;44.632;10.942;2022-10-31T02:56:58;13.52;;;7.30;;
15553;SDS011;7878;44.632;10.942;2022-10-31T02:59:29;11.15;;;7.63;;
15553;SDS011;7878;44.632;10.942;2022-10-31T03:02:03;13.55;;;6.13;;
15553;SDS011;7878;44.632;10.942;2022-10-31T03:09:52;10.77;;;6.40;;
15553;SDS011;7878;44.632;10.942;2022-10-31T03:12:28;10.20;;;7.03;;
15553;SDS011;7878;44.632;10.942;2022-10-31T03:17:42;9.65;;;6.10;;
15553;SDS011;7878;44.632;10.942;2022-10-31T03:20:36;9.13;;;6.47;;
15553;SDS011;7878;44.632;10.942;2022-10-31T03:23:06;13.52;;;7.70;;
15553;SDS011;7878;44.632;10.942;2022-10-31T03:25:35;10.88;;;7.55;;
15553;SDS011;7878;44.632;10.942;2022-10-31T03:28:02;12.90;;;7.53;;
15553;SDS011;7878;44.632;10.942;2022-10-31T03:30:30;9.03;;;6.77;;
15553;SDS011;7878;44.632;10.942;2022-10-31T03:32:59;12.03;;;8.07;;
15553;SDS011;7878;44.632;10.942;2022-10-31T03:35:28;11.70;;;8.23;;
15553;SDS011;7878;44.632;10.942;2022-10-31T03:37:55;12.18;;;8.23;;
15553;SDS011;7878;44.632;10.942;2022-10-31T03:40:24;13.05;;;8.55;;
15553;SDS011;7878;44.632;10.942;2022-10-31T03:42:53;15.82;;;8.68;;
15553;SDS011;7878;44.632;10.942;2022-10-31T03:45:26;17.00;;;9.30;;
15553;SDS011;7878;44.632;10.942;2022-10-31T03:47:55;13.20;;;9.18;;
15553;SDS011;7878;44.632;10.942;2022-10-31T03:50:23;15.45;;;9.60;;
15553;SDS011;7878;44.632;10.942;2022-10-31T03:53:03;15.60;;;9.13;;
15553;SDS011;7878;44.632;10.942;2022-10-31T03:55:51;14.30;;;9.30;;
15553;SDS011;7878;44.632;10.942;2022-10-31T03:58:24;18.70;;;9.73;;
15553;SDS011;7878;44.632;10.942;2022-10-31T04:00:57;13.87;;;8.93;;
15553;SDS011;7878;44.632;10.942;2022-10-31T04:03:26;15.40;;;9.43;;
15553;SDS011;7878;44.632;10.942;2022-10-31T04:05:55;17.42;;;9.45;;
15553;SDS011;7878;44.632;10.942;2022-10-31T04:08:25;14.10;;;9.57;;
15553;SDS011;7878;44.632;10.942;2022-10-31T04:10:53;16.10;;;10.03;;
15553;SDS011;7878;44.632;10.942;2022-10-31T04:13:23;20.57;;;9.33;;
15553;SDS011;7878;44.632;10.942;2022-10-31T04:15:51;15.03;;;9.57;;
15553;SDS011;7878;44.632;10.942;2022-10-31T04:18:19;15.30;;;9.67;;
15553;SDS011;7878;44.632;10.942;2022-10-31T04:20:44;20.23;;;10.40;;
15553;SDS011;7878;44.632;10.942;2022-10-31T04:23:18;14.53;;;9.10;;
15553;SDS011;7878;44.632;10.942;2022-10-31T04:25:45;18.00;;;9.70;;
15553;SDS011;7878;44.632;10.942;2022-10-31T04:28:11;17.00;;;9.43;;
15553;SDS011;7878;44.632;10.942;2022-10-31T04:30:36;12.82;;;8.75;;
15553;SDS011;7878;44.632;10.942;2022-10-31T04:33:02;16.53;;;8.60;;
15553;SDS011;7878;44.632;10.942;2022-10-31T04:35:28;13.40;;;8.33;;
15553;SDS011;7878;44.632;10.942;2022-10-31T04:37:53;14.37;;;8.53;;
15553;SDS011;7878;44.632;10.942;2022-10-31T04:40:19;13.20;;;8.50;;
15553;SDS011;7878;44.632;10.942;2022-10-31T04:42:44;13.10;;;8.87;;
15553;SDS011;7878;44.632;10.942;2022-10-31T04:45:10;14.17;;;8.80;;
15553;SDS011;7878;44.632;10.942;2022-10-31T04:47:36;14.13;;;8.47;;
15553;SDS011;7878;44.632;10.942;2022-10-31T04:50:01;13.53;;;8.33;;
15553;SDS011;7878;44.632;10.942;2022-10-31T04:52:27;12.00;;;8.13;;
15553;SDS011;7878;44.632;10.942;2022-10-31T04:54:53;13.93;;;8.27;;
15553;SDS011;7878;44.632;10.942;2022-10-31T04:57:19;14.90;;;8.50;;
15553;SDS011;7878;44.632;10.942;2022-10-31T04:59:44;14.00;;;8.25;;
15553;SDS011;7878;44.632;10.942;2022-10-31T05:02:10;14.40;;;8.70;;
15553;SDS011;7878;44.632;10.942;2022-10-31T05:04:35;14.70;;;8.80;;
15553;SDS011;7878;44.632;10.942;2022-10-31T05:07:01;17.87;;;8.67;;
15553;SDS011;7878;44.632;10.942;2022-10-31T05:09:27;16.63;;;8.70;;
15553;SDS011;7878;44.632;10.942;2022-10-31T05:11:52;12.47;;;8.70;;
15553;SDS011;7878;44.632;10.942;2022-10-31T05:14:18;17.53;;;8.90;;
15553;SDS011;7878;44.632;10.942;2022-10-31T05:16:44;16.60;;;8.90;;
15553;SDS011;7878;44.632;10.942;2022-10-31T05:19:09;14.27;;;9.10;;
15553;SDS011;7878;44.632;10.942;2022-10-31T05:21:35;11.90;;;9.43;;
15553;SDS011;7878;44.632;10.942;2022-10-31T05:24:00;13.83;;;8.97;;
15553;SDS011;7878;44.632;10.942;2022-10-31T05:29:26;66.53;;;10.67;;
15553;SDS011;7878;44.632;10.942;2022-10-31T05:31:51;28.67;;;8.57;;
15553;SDS011;7878;44.632;10.942;2022-10-31T05:34:17;28.40;;;8.67;;
15553;SDS011;7878;44.632;10.942;2022-10-31T05:36:43;17.50;;;8.00;;
15553;SDS011;7878;44.632;10.942;2022-10-31T05:39:08;24.53;;;9.13;;
15553;SDS011;7878;44.632;10.942;2022-10-31T05:41:34;16.07;;;7.60;;
15553;SDS011;7878;44.632;10.942;2022-10-31T05:43:59;13.70;;;8.07;;
15553;SDS011;7878;44.632;10.942;2022-10-31T05:46:25;15.90;;;7.87;;
15553;SDS011;7878;44.632;10.942;2022-10-31T05:48:51;14.20;;;7.07;;
15553;SDS011;7878;44.632;10.942;2022-10-31T05:51:16;11.20;;;6.87;;
15553;SDS011;7878;44.632;10.942;2022-10-31T05:53:42;13.43;;;7.13;;
15553;SDS011;7878;44.632;10.942;2022-10-31T05:56:07;13.10;;;7.40;;
15553;SDS011;7878;44.632;10.942;2022-10-31T05:58:33;9.73;;;6.47;;
15553;SDS011;7878;44.632;10.942;2022-10-31T06:00:58;13.87;;;7.70;;
15553;SDS011;7878;44.632;10.942;2022-10-31T06:03:24;11.33;;;7.73;;
15553;SDS011;7878;44.632;10.942;2022-10-31T06:05:50;17.07;;;8.33;;
15553;SDS011;7878;44.632;10.942;2022-10-31T06:08:15;15.93;;;7.53;;
15553;SDS011;7878;44.632;10.942;2022-10-31T06:10:41;10.73;;;7.30;;
15553;SDS011;7878;44.632;10.942;2022-10-31T06:13:07;12.40;;;6.57;;
15553;SDS011;7878;44.632;10.942;2022-10-31T06:15:33;10.87;;;6.87;;
15553;SDS011;7878;44.632;10.942;2022-10-31T06:17:59;11.10;;;5.70;;
15553;SDS011;7878;44.632;10.942;2022-10-31T06:20:26;9.87;;;6.13;;
15553;SDS011;7878;44.632;10.942;2022-10-31T06:22:52;13.85;;;6.38;;
15553;SDS011;7878;44.632;10.942;2022-10-31T06:25:17;13.73;;;6.38;;
15553;SDS011;7878;44.632;10.942;2022-10-31T06:27:43;15.10;;;6.28;;
15553;SDS011;7878;44.632;10.942;2022-10-31T06:30:09;9.77;;;6.40;;
15553;SDS011;7878;44.632;10.942;2022-10-31T06:32:35;12.10;;;6.10;;
15553;SDS011;7878;44.632;10.942;2022-10-31T06:35:00;15.03;;;6.63;;
15553;SDS011;7878;44.632;10.942;2022-10-31T06:37:26;14.60;;;6.33;;
15553;SDS011;7878;44.632;10.942;2022-10-31T06:39:52;15.13;;;6.18;;
15553;SDS011;7878;44.632;10.942;2022-10-31T06:42:17;17.93;;;6.90;;
15553;SDS011;7878;44.632;10.942;2022-10-31T06:44:43;14.52;;;6.43;;
15553;SDS011;7878;44.632;10.942;2022-10-31T06:47:08;14.70;;;6.47;;
15553;SDS011;7878;44.632;10.942;2022-10-31T06:49:34;11.27;;;6.43;;
15553;SDS011;7878;44.632;10.942;2022-10-31T06:52:00;12.93;;;6.43;;
15553;SDS011;7878;44.632;10.942;2022-10-31T06:54:25;12.45;;;6.47;;
15553;SDS011;7878;44.632;10.942;2022-10-31T06:56:51;15.63;;;6.10;;
15553;SDS011;7878;44.632;10.942;2022-10-31T06:59:17;11.15;;;5.50;;
15553;SDS011;7878;44.632;10.942;2022-10-31T07:01:42;14.87;;;6.60;;
15553;SDS011;7878;44.632;10.942;2022-10-31T07:04:09;14.07;;;6.67;;
15553;SDS011;7878;44.632;10.942;2022-10-31T07:06:35;13.40;;;6.57;;
15553;SDS011;7878;44.632;10.942;2022-10-31T07:09:01;9.13;;;5.78;;
15553;SDS011;7878;44.632;10.942;2022-10-31T07:11:26;14.70;;;6.50;;
15553;SDS011;7878;44.632;10.942;2022-10-31T07:13:52;15.63;;;6.68;;
15553;SDS011;7878;44.632;10.942;2022-10-31T07:16:17;12.93;;;7.43;;
15553;SDS011;7878;44.632;10.942;2022-10-31T07:18:43;12.90;;;7.50;;
15553;SDS011;7878;44.632;10.942;2022-10-31T07:21:09;10.80;;;7.37;;
15553;SDS011;7878;44.632;10.942;2022-10-31T07:23:34;14.70;;;7.13;;
15553;SDS011;7878;44.632;10.942;2022-10-31T07:26:00;12.50;;;6.10;;
15553;SDS011;7878;44.632;10.942;2022-10-31T07:28:26;14.50;;;6.82;;
15553;SDS011;7878;44.632;10.942;2022-10-31T07:30:52;10.93;;;6.38;;
15553;SDS011;7878;44.632;10.942;2022-10-31T07:33:20;14.60;;;6.65;;
15553;SDS011;7878;44.632;10.942;2022-10-31T07:35:46;14.40;;;6.45;;
15553;SDS011;7878;44.632;10.942;2022-10-31T07:38:12;11.82;;;6.38;;
15553;SDS011;7878;44.632;10.942;2022-10-31T07:40:39;15.40;;;6.43;;
15553;SDS011;7878;44.632;10.942;2022-10-31T07:43:06;10.50;;;6.45;;
15553;SDS011;7878;44.632;10.942;2022-10-31T07:45:32;11.35;;;6.65;;
15553;SDS011;7878;44.632;10.942;2022-10-31T07:47:57;19.40;;;6.05;;
15553;SDS011;7878;44.632;10.942;2022-10-31T07:50:25;11.98;;;6.32;;
15553;SDS011;7878;44.632;10.942;2022-10-31T07:52:58;10.80;;;6.53;;
15553;SDS011;7878;44.632;10.942;2022-10-31T07:55:25;13.75;;;5.25;;
15553;SDS011;7878;44.632;10.942;2022-10-31T07:57:58;11.20;;;5.35;;
15553;SDS011;7878;44.632;10.942;2022-10-31T08:00:24;13.27;;;5.72;;
15553;SDS011;7878;44.632;10.942;2022-10-31T08:03:00;13.63;;;5.88;;
15553;SDS011;7878;44.632;10.942;2022-10-31T08:05:26;16.17;;;5.97;;
15553;SDS011;7878;44.632;10.942;2022-10-31T08:07:52;11.40;;;6.07;;
15553;SDS011;7878;44.632;10.942;2022-10-31T08:10:18;9.93;;;5.30;;
15553;SDS011;7878;44.632;10.942;2022-10-31T08:12:44;13.15;;;5.70;;
15553;SDS011;7878;44.632;10.942;2022-10-31T08:15:09;16.85;;;5.72;;
15553;SDS011;7878;44.632;10.942;2022-10-31T08:17:35;10.82;;;5.97;;
15553;SDS011;7878;44.632;10.942;2022-10-31T08:20:02;15.82;;;6.22;;
15553;SDS011;7878;44.632;10.942;2022-10-31T08:22:28;21.23;;;8.70;;
15553;SDS011;7878;44.632;10.942;2022-10-31T08:24:53;25.92;;;10.73;;
15553;SDS011;7878;44.632;10.942;2022-10-31T08:27:20;20.17;;;10.32;;
15553;SDS011;7878;44.632;10.942;2022-10-31T08:29:46;23.48;;;14.57;;
15553;SDS011;7878;44.632;10.942;2022-10-31T08:32:12;21.85;;;11.38;;
15553;SDS011;7878;44.632;10.942;2022-10-31T08:34:37;19.35;;;8.07;;
15553;SDS011;7878;44.632;10.942;2022-10-31T08:37:03;25.15;;;10.65;;
15553;SDS011;7878;44.632;10.942;2022-10-31T08:39:29;18.08;;;8.65;;
15553;SDS011;7878;44.632;10.942;2022-10-31T08:41:54;23.00;;;9.95;;
15553;SDS011;7878;44.632;10.942;2022-10-31T08:44:20;15.88;;;9.40;;
15553;SDS011;7878;44.632;10.942;2022-10-31T08:46:46;30.05;;;11.10;;
15553;SDS011;7878;44.632;10.942;2022-10-31T08:49:11;26.05;;;15.80;;
15553;SDS011;7878;44.632;10.942;2022-10-31T08:51:37;24.92;;;13.82;;
15553;SDS011;7878;44.632;10.942;2022-10-31T08:54:03;32.28;;;13.07;;
15553;SDS011;7878;44.632;10.942;2022-10-31T08:56:28;23.67;;;16.02;;
15553;SDS011;7878;44.632;10.942;2022-10-31T08:58:54;31.17;;;15.73;;
15553;SDS011;7878;44.632;10.942;2022-10-31T09:01:20;24.13;;;14.57;;
15553;SDS011;7878;44.632;10.942;2022-10-31T09:03:45;45.75;;;21.35;;
15553;SDS011;7878;44.632;10.942;2022-10-31T09:06:11;27.02;;;14.70;;
15553;SDS011;7878;44.632;10.942;2022-10-31T09:08:37;28.92;;;14.55;;
15553;SDS011;7878;44.632;10.942;2022-10-31T09:11:03;28.10;;;14.65;;
15553;SDS011;7878;44.632;10.942;2022-10-31T09:13:29;27.20;;;13.57;;
15553;SDS011;7878;44.632;10.942;2022-10-31T09:15:55;25.02;;;13.82;;
15553;SDS011;7878;44.632;10.942;2022-10-31T09:18:23;33.05;;;14.60;;
15553;SDS011;7878;44.632;10.942;2022-10-31T09:20:49;27.02;;;14.68;;
15553;SDS011;7878;44.632;10.942;2022-10-31T09:23:16;29.45;;;14.02;;
15553;SDS011;7878;44.632;10.942;2022-10-31T09:25:47;25.08;;;14.23;;
15553;SDS011;7878;44.632;10.942;2022-10-31T09:28:15;27.52;;;16.15;;
15553;SDS011;7878;44.632;10.942;2022-10-31T09:30:45;30.02;;;15.30;;
15553;SDS011;7878;44.632;10.942;2022-10-31T09:33:12;32.13;;;17.90;;
15553;SDS011;7878;44.632;10.942;2022-10-31T09:35:39;35.15;;;17.77;;
15553;SDS011;7878;44.632;10.942;2022-10-31T09:38:06;33.67;;;15.38;;
15553;SDS011;7878;44.632;10.942;2022-10-31T09:43:15;28.85;;;17.58;;
15553;SDS011;7878;44.632;10.942;2022-10-31T09:48:30;24.60;;;13.73;;
15553;SDS011;7878;44.632;10.942;2022-10-31T09:51:16;25.95;;;14.65;;
15553;SDS011;7878;44.632;10.942;2022-10-31T09:57:12;27.55;;;15.25;;
15553;SDS011;7878;44.632;10.942;2022-10-31T09:59:43;27.90;;;15.10;;
15553;SDS011;7878;44.632;10.942;2022-10-31T10:05:00;29.33;;;15.88;;
15553;SDS011;7878;44.632;10.942;2022-10-31T10:07:46;24.58;;;15.38;;
15553;SDS011;7878;44.632;10.942;2022-10-31T10:10:24;24.30;;;16.02;;
15553;SDS011;7878;44.632;10.942;2022-10-31T10:13:15;29.95;;;14.85;;
15553;SDS011;7878;44.632;10.942;2022-10-31T10:16:12;24.98;;;15.30;;
15553;SDS011;7878;44.632;10.942;2022-10-31T10:21:58;26.90;;;16.08;;
15553;SDS011;7878;44.632;10.942;2022-10-31T10:24:53;22.83;;;15.82;;
15553;SDS011;7878;44.632;10.942;2022-10-31T10:27:41;33.42;;;16.35;;
15553;SDS011;7878;44.632;10.942;2022-10-31T10:30:21;36.10;;;16.40;;
15553;SDS011;7878;44.632;10.942;2022-10-31T10:33:11;27.95;;;15.77;;
15553;SDS011;7878;44.632;10.942;2022-10-31T10:35:50;34.22;;;17.45;;
15553;SDS011;7878;44.632;10.942;2022-10-31T10:38:26;37.63;;;18.40;;
15553;SDS011;7878;44.632;10.942;2022-10-31T10:40:56;27.70;;;16.40;;
15553;SDS011;7878;44.632;10.942;2022-10-31T10:51:40;53.95;;;17.58;;
15553;SDS011;7878;44.632;10.942;2022-10-31T10:59:44;29.58;;;15.70;;
15553;SDS011;7878;44.632;10.942;2022-10-31T11:02:16;28.98;;;16.48;;
15553;SDS011;7878;44.632;10.942;2022-10-31T11:04:43;25.63;;;15.32;;
15553;SDS011;7878;44.632;10.942;2022-10-31T11:07:13;25.33;;;13.23;;
15553;SDS011;7878;44.632;10.942;2022-10-31T11:09:39;20.30;;;15.18;;
15553;SDS011;7878;44.632;10.942;2022-10-31T11:12:28;23.90;;;16.88;;
15553;SDS011;7878;44.632;10.942;2022-10-31T11:14:54;20.27;;;15.35;;
15553;SDS011;7878;44.632;10.942;2022-10-31T11:20:24;30.75;;;17.60;;
15553;SDS011;7878;44.632;10.942;2022-10-31T11:23:03;33.17;;;16.52;;
15553;SDS011;7878;44.632;10.942;2022-10-31T11:25:47;24.92;;;17.20;;
15553;SDS011;7878;44.632;10.942;2022-10-31T11:28:27;23.27;;;15.68;;
15553;SDS011;7878;44.632;10.942;2022-10-31T11:31:07;40.38;;;29.73;;
15553;SDS011;7878;44.632;10.942;2022-10-31T11:33:40;37.53;;;25.02;;
15553;SDS011;7878;44.632;10.942;2022-10-31T11:36:16;31.35;;;21.48;;
15553;SDS011;7878;44.632;10.942;2022-10-31T11:38:43;27.02;;;17.92;;
15553;SDS011;7878;44.632;10.942;2022-10-31T11:41:12;32.10;;;20.45;;
15553;SDS011;7878;44.632;10.942;2022-10-31T11:43:56;26.30;;;18.08;;
15553;SDS011;7878;44.632;10.942;2022-10-31T11:46:58;25.35;;;18.90;;
15553;SDS011;7878;44.632;10.942;2022-10-31T11:49:29;23.30;;;19.33;;
15553;SDS011;7878;44.632;10.942;2022-10-31T11:52:06;25.45;;;17.45;;
15553;SDS011;7878;44.632;10.942;2022-10-31T12:00:21;20.95;;;15.80;;
15553;SDS011;7878;44.632;10.942;2022-10-31T12:03:10;29.17;;;16.45;;
15553;SDS011;7878;44.632;10.942;2022-10-31T12:05:36;25.90;;;17.05;;
15553;SDS011;7878;44.632;10.942;2022-10-31T12:08:06;30.60;;;17.05;;
15553;SDS011;7878;44.632;10.942;2022-10-31T12:10:44;21.42;;;16.05;;
15553;SDS011;7878;44.632;10.942;2022-10-31T12:19:06;22.85;;;14.45;;
15553;SDS011;7878;44.632;10.942;2022-10-31T12:21:51;20.48;;;14.50;;
15553;SDS011;7878;44.632;10.942;2022-10-31T12:24:31;23.48;;;14.50;;
15553;SDS011;7878;44.632;10.942;2022-10-31T12:27:19;28.35;;;16.17;;
15553;SDS011;7878;44.632;10.942;2022-10-31T13:01:32;18.00;;;13.80;;
15553;SDS011;7878;44.632;10.942;2022-10-31T13:04:03;25.70;;;14.32;;
15553;SDS011;7878;44.632;10.942;2022-10-31T13:06:38;24.10;;;12.95;;
15553;SDS011;7878;44.632;10.942;2022-10-31T13:09:09;21.25;;;13.73;;
15553;SDS011;7878;44.632;10.942;2022-10-31T13:12:07;16.88;;;13.25;;
15553;SDS011;7878;44.632;10.942;2022-10-31T13:14:37;25.45;;;13.48;;
15553;SDS011;7878;44.632;10.942;2022-10-31T13:17:08;21.10;;;13.45;;
15553;SDS011;7878;44.632;10.942;2022-10-31T13:22:52;26.20;;;15.30;;
15553;SDS011;7878;44.632;10.942;2022-10-31T13:25:35;26.40;;;14.68;;
15553;SDS011;7878;44.632;10.942;2022-10-31T13:28:48;17.63;;;13.55;;
15553;SDS011;7878;44.632;10.942;2022-10-31T13:31:13;25.92;;;14.23;;
15553;SDS011;7878;44.632;10.942;2022-10-31T13:33:41;20.65;;;13.13;;
15553;SDS011;7878;44.632;10.942;2022-10-31T13:39:31;22.42;;;13.80;;
15553;SDS011;7878;44.632;10.942;2022-10-31T13:44:40;23.27;;;13.45;;
15553;SDS011;7878;44.632;10.942;2022-10-31T13:47:22;23.80;;;13.68;;
15553;SDS011;7878;44.632;10.942;2022-10-31T13:52:43;21.58;;;12.20;;
15553;SDS011;7878;44.632;10.942;2022-10-31T13:55:33;24.50;;;13.43;;
15553;SDS011;7878;44.632;10.942;2022-10-31T13:58:24;21.60;;;12.57;;
15553;SDS011;7878;44.632;10.942;2022-10-31T14:03:39;22.70;;;12.20;;
15553;SDS011;7878;44.632;10.942;2022-10-31T14:06:07;25.48;;;12.75;;
15553;SDS011;7878;44.632;10.942;2022-10-31T14:08:37;20.33;;;12.65;;
15553;SDS011;7878;44.632;10.942;2022-10-31T14:11:16;24.88;;;15.27;;
15553;SDS011;7878;44.632;10.942;2022-10-31T14:13:48;23.83;;;11.90;;
15553;SDS011;7878;44.632;10.942;2022-10-31T14:16:19;23.73;;;13.80;;
15553;SDS011;7878;44.632;10.942;2022-10-31T14:18:51;21.92;;;12.32;;
15553;SDS011;7878;44.632;10.942;2022-10-31T14:21:42;22.38;;;11.65;;
15553;SDS011;7878;44.632;10.942;2022-10-31T14:24:14;23.00;;;12.75;;
15553;SDS011;7878;44.632;10.942;2022-10-31T14:26:50;18.58;;;11.70;;
15553;SDS011;7878;44.632;10.942;2022-10-31T14:29:39;23.70;;;11.70;;
15553;SDS011;7878;44.632;10.942;2022-10-31T14:34:41;21.05;;;12.10;;
15553;SDS011;7878;44.632;10.942;2022-10-31T14:46:07;23.15;;;12.02;;
15553;SDS011;7878;44.632;10.942;2022-10-31T14:51:16;18.00;;;10.43;;
15553;SDS011;7878;44.632;10.942;2022-10-31T14:56:17;19.63;;;11.05;;
15553;SDS011;7878;44.632;10.942;2022-10-31T14:58:47;20.08;;;11.00;;
15553;SDS011;7878;44.632;10.942;2022-10-31T15:03:51;23.40;;;11.15;;
15553;SDS011;7878;44.632;10.942;2022-10-31T15:06:19;17.63;;;12.05;;
15553;SDS011;7878;44.632;10.942;2022-10-31T15:08:48;21.73;;;10.60;;
15553;SDS011;7878;44.632;10.942;2022-10-31T15:11:20;21.70;;;10.35;;
15553;SDS011;7878;44.632;10.942;2022-10-31T15:13:52;21.02;;;11.25;;
15553;SDS011;7878;44.632;10.942;2022-10-31T15:16:21;25.05;;;11.27;;
15553;SDS011;7878;44.632;10.942;2022-10-31T15:18:54;27.85;;;11.93;;
15553;SDS011;7878;44.632;10.942;2022-10-31T15:21:23;21.15;;;11.93;;
15553;SDS011;7878;44.632;10.942;2022-10-31T15:23:54;22.90;;;11.20;;
15553;SDS011;7878;44.632;10.942;2022-10-31T15:26:22;19.52;;;10.35;;
15553;SDS011;7878;44.632;10.942;2022-10-31T15:29:05;20.45;;;11.50;;
15553;SDS011;7878;44.632;10.942;2022-10-31T15:31:51;24.48;;;10.80;;
15553;SDS011;7878;44.632;10.942;2022-10-31T15:34:22;28.30;;;10.70;;
15553;SDS011;7878;44.632;10.942;2022-10-31T15:37:03;23.50;;;11.38;;
15553;SDS011;7878;44.632;10.942;2022-10-31T15:39:29;27.45;;;11.32;;
15553;SDS011;7878;44.632;10.942;2022-10-31T15:41:55;25.25;;;11.32;;
15553;SDS011;7878;44.632;10.942;2022-10-31T15:44:27;21.40;;;11.10;;
15553;SDS011;7878;44.632;10.942;2022-10-31T15:47:03;45.47;;;12.98;;
15553;SDS011;7878;44.632;10.942;2022-10-31T15:49:40;41.85;;;11.07;;
15553;SDS011;7878;44.632;10.942;2022-10-31T15:52:12;36.38;;;11.77;;
15553;SDS011;7878;44.632;10.942;2022-10-31T15:54:53;25.80;;;11.20;;
15553;SDS011;7878;44.632;10.942;2022-10-31T15:57:22;23.75;;;10.98;;
15553;SDS011;7878;44.632;10.942;2022-10-31T15:59:49;38.30;;;11.35;;
15553;SDS011;7878;44.632;10.942;2022-10-31T16:02:18;46.70;;;12.43;;
15553;SDS011;7878;44.632;10.942;2022-10-31T16:04:53;43.75;;;11.63;;
15553;SDS011;7878;44.632;10.942;2022-10-31T16:07:21;63.70;;;13.10;;
15553;SDS011;7878;44.632;10.942;2022-10-31T16:10:00;34.15;;;12.23;;
15553;SDS011;7878;44.632;10.942;2022-10-31T16:12:35;27.42;;;10.77;;
15553;SDS011;7878;44.632;10.942;2022-10-31T16:15:03;34.05;;;12.25;;
15553;SDS011;7878;44.632;10.942;2022-10-31T16:17:29;25.23;;;11.07;;
15553;SDS011;7878;44.632;10.942;2022-10-31T16:22:33;30.23;;;12.25;;
15553;SDS011;7878;44.632;10.942;2022-10-31T16:25:03;24.67;;;10.95;;
15553;SDS011;7878;44.632;10.942;2022-10-31T16:27:40;27.67;;;10.48;;
15553;SDS011;7878;44.632;10.942;2022-10-31T16:30:27;23.90;;;10.45;;
15553;SDS011;7878;44.632;10.942;2022-10-31T16:32:59;29.33;;;10.10;;
15553;SDS011;7878;44.632;10.942;2022-10-31T16:35:27;21.92;;;10.52;;
15553;SDS011;7878;44.632;10.942;2022-10-31T16:37:56;26.15;;;10.48;;
15553;SDS011;7878;44.632;10.942;2022-10-31T16:40:22;31.55;;;10.50;;
15553;SDS011;7878;44.632;10.942;2022-10-31T16:42:48;27.60;;;10.27;;
15553;SDS011;7878;44.632;10.942;2022-10-31T16:45:25;22.58;;;11.38;;
15553;SDS011;7878;44.632;10.942;2022-10-31T16:47:54;26.48;;;11.48;;
15553;SDS011;7878;44.632;10.942;2022-10-31T16:50:31;29.02;;;11.30;;
15553;SDS011;7878;44.632;10.942;2022-10-31T16:52:57;18.48;;;10.15;;
15553;SDS011;7878;44.632;10.942;2022-10-31T16:55:23;21.40;;;10.55;;
15553;SDS011;7878;44.632;10.942;2022-10-31T16:57:50;26.30;;;9.45;;
15553;SDS011;7878;44.632;10.942;2022-10-31T17:00:21;19.65;;;9.98;;
15553;SDS011;7878;44.632;10.942;2022-10-31T17:02:48;23.50;;;10.25;;
15553;SDS011;7878;44.632;10.942;2022-10-31T17:05:19;23.00;;;9.80;;
15553;SDS011;7878;44.632;10.942;2022-10-31T17:07:46;29.45;;;10.68;;
15553;SDS011;7878;44.632;10.942;2022-10-31T17:10:13;24.05;;;10.63;;
15553;SDS011;7878;44.632;10.942;2022-10-31T17:12:43;22.45;;;11.13;;